Time;durP1;ratioP1;P1;durP2;ratioP2;P2;SDS_P1;SDS_P2;PMS_P1;PMS_P2;Temp;Humidity;BMP_temperature;BMP_pressure;BME280_temperature;BME280_humidity;BME280_pressure;Samples;Min_cycle;Max_cycle;Signal;HPM_P1;HPM_P2
2021/06/18 00:00:16;;;;;;;7.97;4.43;;;;;;;24.93;52.57;99441.41;2226154;40;20033;-82
2021/06/18 00:01:46;;;;;;;7.20;3.78;;;;;;;24.93;52.92;99446.88;2225681;40;20477;-81
2021/06/18 00:03:18;;;;;;;7.18;4.55;;;;;;;24.90;53.17;99441.91;2231040;40;20051;-80
2021/06/18 00:04:49;;;;;;;5.82;3.92;;;;;;;24.89;53.13;99440.25;2229248;40;20037;-82
2021/06/18 00:06:21;;;;;;;9.43;4.28;;;;;;;24.87;53.15;99443.25;2226224;40;20371;-83
2021/06/18 00:07:54;;;;;;;10.50;5.30;;;;;;;24.81;53.37;99443.41;2222568;40;20040;-83
2021/06/18 00:09:24;;;;;;;8.30;4.72;;;;;;;24.74;53.68;99449.91;2226512;40;20075;-84
2021/06/18 00:10:56;;;;;;;8.07;4.90;;;;;;;24.72;53.43;99446.59;2226754;40;20073;-81
2021/06/18 00:12:27;;;;;;;7.78;4.70;;;;;;;24.69;53.42;99447.09;2220980;40;20420;-82
2021/06/18 00:14:00;;;;;;;8.20;4.55;;;;;;;24.65;53.22;99440.47;2220490;40;20044;-86
2021/06/18 00:15:32;;;;;;;9.82;4.82;;;;;;;24.64;53.75;99447.00;2219591;40;20053;-85
2021/06/18 00:17:04;;;;;;;6.63;4.20;;;;;;;24.60;53.68;99443.13;2219905;40;20048;-85
2021/06/18 00:18:36;;;;;;;8.70;5.15;;;;;;;24.59;54.02;99444.19;2220102;40;20044;-84
2021/06/18 00:20:09;;;;;;;6.10;4.47;;;;;;;24.59;53.89;99446.91;2220129;40;20054;-82
2021/06/18 00:21:41;;;;;;;6.68;4.53;;;;;;;24.53;54.31;99442.47;2225018;40;20025;-81
2021/06/18 00:23:13;;;;;;;8.50;4.75;;;;;;;24.50;53.95;99442.97;2226616;40;20399;-83
2021/06/18 00:24:45;;;;;;;8.02;4.43;;;;;;;24.52;53.98;99441.63;2227312;40;20049;-84
2021/06/18 00:26:16;;;;;;;6.55;3.88;;;;;;;24.49;54.00;99441.31;2220234;40;20052;-83
2021/06/18 00:27:48;;;;;;;7.13;4.25;;;;;;;24.44;54.07;99442.91;2220691;40;20029;-84
2021/06/18 00:29:21;;;;;;;7.72;4.63;;;;;;;24.41;54.31;99442.59;2220919;40;20040;-85
2021/06/18 00:30:53;;;;;;;7.35;4.32;;;;;;;24.35;54.57;99436.22;2220404;40;20030;-84
2021/06/18 00:32:25;;;;;;;6.53;4.38;;;;;;;24.29;54.86;99442.66;2221282;40;20036;-82
2021/06/18 00:33:57;;;;;;;7.35;4.03;;;;;;;24.26;54.82;99440.47;2220517;40;20021;-81
2021/06/18 00:35:31;;;;;;;7.05;4.45;;;;;;;24.20;54.85;99445.00;2226553;40;20053;-82
2021/06/18 00:37:03;;;;;;;6.97;4.60;;;;;;;24.12;54.82;99443.53;2227779;40;20028;-82
2021/06/18 00:38:34;;;;;;;7.38;4.30;;;;;;;24.14;54.76;99435.91;2226245;40;20037;-86
2021/06/18 00:40:07;;;;;;;8.98;4.95;;;;;;;24.13;54.55;99442.44;2228630;40;20048;-84
2021/06/18 00:41:39;;;;;;;10.98;4.55;;;;;;;24.11;54.75;99436.41;2219973;40;20030;-86
2021/06/18 00:43:11;;;;;;;9.80;4.78;;;;;;;24.12;54.52;99442.72;2220307;40;20040;-85
2021/06/18 00:44:45;;;;;;;5.65;4.15;;;;;;;24.12;55.13;99438.06;2220615;40;20069;-84
2021/06/18 00:46:17;;;;;;;7.45;4.53;;;;;;;24.02;55.56;99435.16;2220787;40;20033;-84
2021/06/18 00:48:01;;;;;;;7.38;4.20;;;;;;;23.97;55.76;99433.19;2219895;40;20635;-84
2021/06/18 00:49:32;;;;;;;5.53;4.00;;;;;;;23.94;56.09;99436.44;2211118;40;20034;-83
2021/06/18 00:51:05;;;;;;;6.50;4.20;;;;;;;23.91;56.13;99430.59;2220920;40;20092;-85
2021/06/18 00:52:37;;;;;;;7.18;4.22;;;;;;;23.90;56.35;99434.41;2220423;40;20026;-83
2021/06/18 00:54:10;;;;;;;7.90;4.60;;;;;;;23.86;56.36;99430.50;2220628;40;20037;-85
2021/06/18 00:55:47;;;;;;;8.43;4.63;;;;;;;23.78;56.53;99431.75;2220059;40;20113;-85
2021/06/18 00:57:19;;;;;;;6.95;4.88;;;;;;;23.76;56.78;99432.00;2222164;40;20051;-86
2021/06/18 00:58:51;;;;;;;7.20;4.57;;;;;;;23.71;56.98;99442.00;2231902;40;20033;-85
2021/06/18 01:00:24;;;;;;;7.28;5.15;;;;;;;23.65;57.30;99438.34;2232583;40;20401;-84
2021/06/18 01:01:55;;;;;;;9.48;5.38;;;;;;;23.57;57.26;99436.03;2231199;40;20052;-85
2021/06/18 01:03:27;;;;;;;10.45;5.45;;;;;;;23.51;57.50;99435.94;2233039;40;20041;-83
2021/06/18 01:04:57;;;;;;;10.93;5.40;;;;;;;23.49;57.60;99438.09;2232268;40;20040;-82
2021/06/18 01:06:34;;;;;;;9.32;5.45;;;;;;;23.48;57.73;99449.22;2230163;40;20039;-82
2021/06/18 01:08:11;;;;;;;11.20;5.00;;;;;;;23.45;57.70;99452.44;2221641;40;20104;-84
2021/06/18 01:09:52;;;;;;;6.95;4.82;;;;;;;23.35;57.92;99453.91;2223166;40;20083;-81
2021/06/18 01:11:33;;;;;;;8.60;4.97;;;;;;;23.30;57.90;99453.00;2231201;40;20040;-84
2021/06/18 01:13:10;;;;;;;9.25;5.50;;;;;;;23.27;58.14;99459.75;2232591;40;20048;-84
2021/06/18 01:14:49;;;;;;;7.57;4.40;;;;;;;23.22;58.20;99456.91;2220668;40;20036;-83
2021/06/18 01:16:31;;;;;;;7.72;4.82;;;;;;;23.21;58.25;99458.84;2208201;40;20042;-85
2021/06/18 01:18:06;;;;;;;8.32;4.75;;;;;;;23.18;57.80;99456.59;2221440;40;20041;-83
2021/06/18 01:19:50;;;;;;;7.72;4.60;;;;;;;23.16;57.35;99466.03;2214549;40;20095;-81
2021/06/18 01:21:29;;;;;;;6.53;4.40;;;;;;;22.99;57.53;99464.09;2219169;40;20053;-81
2021/06/18 01:23:04;;;;;;;8.60;4.57;;;;;;;22.78;57.54;99462.81;2225064;40;20245;-82
2021/06/18 01:24:47;;;;;;;8.30;3.95;;;;;;;22.59;57.80;99465.69;2226465;40;20065;-85
2021/06/18 01:26:47;;;;;;;7.90;4.65;;;;;;;22.44;58.29;99466.16;2228736;40;20033;-85
2021/06/18 01:28:37;;;;;;;11.25;4.75;;;;;;;22.34;58.79;99467.78;2204855;40;20084;-85
2021/06/18 01:30:11;;;;;;;6.47;4.30;;;;;;;22.25;59.08;99465.44;2226841;40;20226;-81
2021/06/18 01:31:48;;;;;;;7.40;4.57;;;;;;;22.19;59.61;99466.38;2225689;40;20376;-85
2021/06/18 01:33:22;;;;;;;10.48;4.75;;;;;;;22.13;60.05;99473.59;2230573;40;20036;-83
2021/06/18 01:34:54;;;;;;;6.15;4.60;;;;;;;22.10;59.95;99468.63;2233181;40;20041;-83
2021/06/18 01:36:29;;;;;;;9.20;4.68;;;;;;;22.10;60.44;99473.25;2230547;40;20017;-83
2021/06/18 01:38:03;;;;;;;9.75;5.22;;;;;;;22.12;60.45;99468.38;2226864;40;20048;-82
2021/06/18 01:39:36;;;;;;;7.68;5.05;;;;;;;22.16;60.13;99471.44;2227565;40;20057;-83
2021/06/18 01:41:13;;;;;;;9.40;4.60;;;;;;;22.21;60.17;99469.66;2228632;40;20053;-84
2021/06/18 01:42:48;;;;;;;7.25;4.40;;;;;;;22.31;59.95;99465.53;2228258;40;20075;-87
2021/06/18 01:44:22;;;;;;;10.60;5.38;;;;;;;22.34;60.52;99475.97;2228172;40;20038;-87
2021/06/18 01:45:56;;;;;;;10.02;5.13;;;;;;;22.31;60.38;99480.00;2228494;40;20364;-88
2021/06/18 01:47:28;;;;;;;9.02;5.35;;;;;;;22.33;60.29;99477.03;2226250;40;20590;-86
2021/06/18 01:49:03;;;;;;;10.57;5.25;;;;;;;22.28;60.47;99481.31;2225551;40;20040;-86
2021/06/18 01:50:36;;;;;;;8.13;5.32;;;;;;;22.24;60.59;99480.09;2227679;40;20033;-87
2021/06/18 01:52:09;;;;;;;9.52;5.07;;;;;;;22.21;60.65;99480.56;2221675;40;20034;-84
2021/06/18 01:53:44;;;;;;;8.10;5.10;;;;;;;22.16;60.59;99485.03;2226048;40;20054;-86
2021/06/18 01:55:17;;;;;;;7.47;4.70;;;;;;;22.17;60.45;99489.44;2225482;40;20044;-83
2021/06/18 01:56:48;;;;;;;8.13;5.13;;;;;;;22.21;60.14;99486.00;2226457;40;20044;-87
2021/06/18 01:58:22;;;;;;;7.70;5.53;;;;;;;22.29;60.32;99485.66;2226743;40;20049;-88
2021/06/18 01:59:59;;;;;;;11.52;5.25;;;;;;;22.24;60.27;99488.25;2226405;40;20029;-84
2021/06/18 02:01:34;;;;;;;10.93;5.68;;;;;;;22.14;60.79;99490.75;2226941;40;20030;-85
2021/06/18 02:03:10;;;;;;;8.70;5.85;;;;;;;22.01;61.04;99486.34;2226727;40;20030;-83
2021/06/18 02:04:46;;;;;;;8.52;5.30;;;;;;;21.93;60.98;99483.97;2227274;40;20455;-85
2021/06/18 02:06:21;;;;;;;11.85;4.93;;;;;;;21.90;61.31;99484.41;2220832;40;20111;-85
2021/06/18 02:07:57;;;;;;;8.30;5.45;;;;;;;21.89;61.15;99483.59;2220849;40;20034;-83
2021/06/18 02:09:32;;;;;;;9.13;4.93;;;;;;;21.89;60.96;99478.16;2220297;40;20041;-84
2021/06/18 02:11:04;;;;;;;7.88;5.30;;;;;;;21.90;60.89;99477.09;2221505;40;20033;-81
2021/06/18 02:12:38;;;;;;;9.30;5.43;;;;;;;21.92;60.64;99474.97;2226937;40;20093;-83
2021/06/18 02:14:15;;;;;;;8.32;4.85;;;;;;;21.96;60.55;99478.88;2225723;40;20037;-82
2021/06/18 02:15:50;;;;;;;9.32;5.38;;;;;;;21.99;60.54;99465.88;2226715;40;20030;-81
2021/06/18 02:17:23;;;;;;;7.28;5.07;;;;;;;22.04;60.41;99474.16;2225620;40;20036;-80
2021/06/18 02:18:56;;;;;;;9.02;5.30;;;;;;;22.09;60.43;99477.03;2224329;40;20444;-80
2021/06/18 02:20:30;;;;;;;8.85;5.13;;;;;;;22.13;60.47;99467.31;2225702;40;20044;-82
2021/06/18 02:22:05;;;;;;;11.05;5.60;;;;;;;22.17;60.31;99476.66;2226144;40;20033;-81
2021/06/18 02:23:38;;;;;;;7.35;5.30;;;;;;;22.15;60.11;99459.75;2225765;40;20410;-83
2021/06/18 02:25:12;;;;;;;5.93;4.35;;;;;;;22.16;60.27;99472.28;2226750;40;20052;-82
2021/06/18 02:26:44;;;;;;;14.85;5.07;;;;;;;22.18;60.02;99469.31;2220890;40;20709;-81
2021/06/18 02:28:15;;;;;;;7.07;4.20;;;;;;;22.24;59.67;99471.13;2227449;40;20044;-84
2021/06/18 02:29:47;;;;;;;7.57;4.32;;;;;;;22.27;59.56;99466.03;2227444;40;20073;-84
2021/06/18 02:31:21;;;;;;;13.70;4.90;;;;;;;22.31;59.66;99463.66;2226646;40;20535;-85
2021/06/18 02:32:57;;;;;;;7.07;4.05;;;;;;;22.31;59.48;99470.97;2226712;40;20152;-84
2021/06/18 02:34:29;;;;;;;8.23;4.10;;;;;;;22.31;59.57;99471.81;2226901;40;20040;-83
2021/06/18 02:36:00;;;;;;;5.78;4.47;;;;;;;22.32;59.77;99467.19;2226050;40;20060;-82
2021/06/18 02:37:32;;;;;;;7.68;4.82;;;;;;;22.31;59.82;99480.00;2226618;40;20037;-82
2021/06/18 02:39:05;;;;;;;8.50;5.53;;;;;;;22.21;60.45;99480.56;2226879;40;20037;-84
2021/06/18 02:40:38;;;;;;;6.47;4.82;;;;;;;22.05;60.76;99481.25;2229523;40;20052;-83
2021/06/18 02:42:11;;;;;;;7.13;5.10;;;;;;;21.89;62.02;99478.16;2221514;40;20554;-79
2021/06/18 02:43:42;;;;;;;8.73;5.05;;;;;;;21.77;62.49;99477.31;2216928;40;20044;-78
2021/06/18 02:45:15;;;;;;;8.45;4.97;;;;;;;21.71;62.68;99480.97;2218229;40;20044;-80
2021/06/18 02:47:02;;;;;;;9.55;5.60;;;;;;;21.69;62.88;99477.63;2220962;40;20059;-80
2021/06/18 02:48:41;;;;;;;10.10;5.22;;;;;;;21.65;62.83;99478.09;2222453;40;20056;-79
2021/06/18 02:50:16;;;;;;;9.40;4.90;;;;;;;21.60;62.90;99477.97;2220395;40;20067;-80
2021/06/18 02:51:52;;;;;;;8.23;5.47;;;;;;;21.53;62.92;99476.38;2217983;40;20033;-79
2021/06/18 02:53:28;;;;;;;8.82;4.70;;;;;;;21.46;63.06;99479.16;2219716;40;20119;-80
2021/06/18 02:55:06;;;;;;;7.18;5.20;;;;;;;21.41;63.33;99471.69;2227918;40;20093;-83
2021/06/18 02:56:41;;;;;;;8.15;4.47;;;;;;;21.41;63.04;99479.03;2228501;40;20032;-82
2021/06/18 02:58:18;;;;;;;7.80;5.28;;;;;;;21.43;63.01;99474.22;2228155;40;20039;-83
2021/06/18 02:59:58;;;;;;;9.43;5.20;;;;;;;21.42;62.84;99475.28;2224163;40;20029;-80
2021/06/18 03:01:35;;;;;;;8.02;5.22;;;;;;;21.37;63.04;99469.69;2216013;40;20045;-82
2021/06/18 03:03:10;;;;;;;8.65;5.22;;;;;;;21.32;63.02;99473.94;2219363;40;20033;-80
2021/06/18 03:04:44;;;;;;;10.00;5.38;;;;;;;21.29;63.17;99473.56;2225861;40;20041;-81
2021/06/18 03:06:17;;;;;;;15.02;5.32;;;;;;;21.25;63.12;99475.91;2224855;40;20037;-80
2021/06/18 03:07:55;;;;;;;7.35;4.60;;;;;;;21.23;63.06;99475.31;2222771;40;20055;-81
2021/06/18 03:09:30;;;;;;;12.43;5.70;;;;;;;21.23;63.24;99475.31;2224320;40;20064;-81
2021/06/18 03:11:03;;;;;;;7.30;5.25;;;;;;;21.25;62.79;99478.63;2224113;40;20049;-81
2021/06/18 03:12:41;;;;;;;9.13;5.10;;;;;;;21.25;63.01;99483.22;2223531;40;20053;-82
2021/06/18 03:14:17;;;;;;;7.50;5.15;;;;;;;21.18;63.34;99494.16;2217342;40;20045;-81
2021/06/18 03:15:49;;;;;;;8.00;4.68;;;;;;;21.06;63.29;99507.69;2216347;40;20040;-85
2021/06/18 03:17:23;;;;;;;7.90;5.07;;;;;;;20.99;63.30;99512.38;2216242;40;20033;-82
2021/06/18 03:18:59;;;;;;;10.00;4.35;;;;;;;20.91;63.21;99516.22;2216708;40;20113;-82
2021/06/18 03:20:33;;;;;;;7.65;4.60;;;;;;;20.87;62.60;99515.03;2216572;40;20030;-81
2021/06/18 03:22:08;;;;;;;7.07;4.40;;;;;;;20.88;62.19;99520.22;2220046;40;20049;-83
2021/06/18 03:23:42;;;;;;;7.38;3.90;;;;;;;20.94;61.29;99523.09;2222250;40;20032;-82
2021/06/18 03:25:15;;;;;;;9.80;4.00;;;;;;;20.96;60.58;99527.25;2222987;40;20036;-85
2021/06/18 03:26:47;;;;;;;6.50;4.35;;;;;;;20.93;60.81;99535.84;2222708;40;20041;-84
2021/06/18 03:28:23;;;;;;;9.80;5.13;;;;;;;20.91;61.23;99529.81;2222056;40;20041;-81
2021/06/18 03:29:56;;;;;;;7.28;5.03;;;;;;;20.82;62.30;99544.72;2218719;40;20110;-81
2021/06/18 03:31:29;;;;;;;8.48;5.38;;;;;;;20.66;63.13;99541.53;2229371;40;20029;-82
2021/06/18 03:33:02;;;;;;;10.25;5.00;;;;;;;20.56;63.65;99544.72;2215957;40;20045;-81
2021/06/18 03:34:36;;;;;;;6.95;4.90;;;;;;;20.49;64.41;99546.69;2216110;40;20058;-82
2021/06/18 03:36:08;;;;;;;9.10;4.72;;;;;;;20.50;64.51;99537.47;2223989;40;20029;-80
2021/06/18 03:37:42;;;;;;;8.32;4.82;;;;;;;20.60;64.51;99547.81;2229049;40;20040;-80
2021/06/18 03:39:14;;;;;;;10.85;5.70;;;;;;;20.53;64.74;99547.91;2223909;40;20032;-80
2021/06/18 03:40:46;;;;;;;7.95;4.95;;;;;;;20.50;64.43;99558.38;2223558;40;20321;-80
2021/06/18 03:42:18;;;;;;;7.60;4.93;;;;;;;20.45;64.53;99552.78;2222261;40;20324;-80
2021/06/18 03:43:51;;;;;;;9.68;5.25;;;;;;;20.43;64.76;99553.00;2223849;40;20045;-80
2021/06/18 03:45:24;;;;;;;9.07;5.38;;;;;;;20.42;64.85;99560.31;2222756;40;20025;-82
2021/06/18 03:46:57;;;;;;;8.77;5.45;;;;;;;20.39;64.85;99557.19;2217650;40;20061;-81
2021/06/18 03:48:30;;;;;;;7.38;5.40;;;;;;;20.41;64.55;99560.53;2221188;40;20056;-79
2021/06/18 03:50:05;;;;;;;8.80;5.25;;;;;;;20.42;64.60;99560.31;2222283;40;20033;-81
2021/06/18 03:51:37;;;;;;;7.43;4.88;;;;;;;20.41;64.48;99555.91;2229441;40;20021;-82
2021/06/18 03:53:10;;;;;;;6.85;4.93;;;;;;;20.47;64.25;99559.63;2225383;40;20048;-82
2021/06/18 03:54:43;;;;;;;8.85;4.78;;;;;;;20.48;64.47;99552.34;2224264;40;20036;-82
2021/06/18 03:56:15;;;;;;;7.70;4.63;;;;;;;20.58;64.05;99549.97;2226818;40;20039;-84
2021/06/18 03:57:49;;;;;;;7.88;4.80;;;;;;;20.67;63.37;99554.03;2226292;40;20040;-83
2021/06/18 03:59:23;;;;;;;7.35;5.10;;;;;;;20.71;63.24;99549.81;2227292;40;20033;-85
2021/06/18 04:00:57;;;;;;;8.30;5.00;;;;;;;20.70;63.05;99559.00;2225311;40;20037;-82
2021/06/18 04:02:28;;;;;;;10.10;5.13;;;;;;;20.73;63.16;99560.47;2226161;40;20033;-83
2021/06/18 04:04:01;;;;;;;7.10;5.10;;;;;;;20.80;62.86;99563.97;2227789;40;20037;-83
2021/06/18 04:05:36;;;;;;;8.88;4.80;;;;;;;20.89;62.59;99556.34;2225989;40;20037;-80
2021/06/18 04:07:09;;;;;;;7.38;4.60;;;;;;;20.96;62.28;99561.72;2226082;40;20100;-83
2021/06/18 04:08:40;;;;;;;10.38;4.80;;;;;;;21.06;61.91;99566.66;2226469;40;20031;-83
2021/06/18 04:10:12;;;;;;;8.40;5.53;;;;;;;21.07;61.25;99568.28;2227004;40;20029;-81
2021/06/18 04:11:45;;;;;;;7.40;5.30;;;;;;;21.10;61.11;99571.41;2226416;40;20034;-82
2021/06/18 04:13:18;;;;;;;7.15;4.65;;;;;;;21.16;60.83;99559.63;2226456;40;20044;-82
2021/06/18 04:14:49;;;;;;;6.50;4.40;;;;;;;21.23;60.47;99562.28;2226223;40;20033;-81
2021/06/18 04:16:22;;;;;;;6.68;4.18;;;;;;;21.30;60.34;99557.59;2226868;40;20048;-82
2021/06/18 04:17:54;;;;;;;7.50;5.13;;;;;;;21.40;59.77;99562.47;2225707;40;20221;-82
2021/06/18 04:19:27;;;;;;;8.52;4.53;;;;;;;21.44;59.47;99554.72;2226842;40;20037;-83
2021/06/18 04:21:04;;;;;;;7.72;4.55;;;;;;;21.47;59.44;99565.97;2225899;40;20034;-83
2021/06/18 04:22:36;;;;;;;8.90;5.07;;;;;;;21.50;59.35;99553.78;2218750;40;20057;-83
2021/06/18 04:24:08;;;;;;;6.55;4.22;;;;;;;21.55;59.26;99564.78;2222250;40;20033;-83
2021/06/18 04:25:40;;;;;;;11.15;5.63;;;;;;;21.60;59.21;99551.38;2224719;40;20041;-82
2021/06/18 04:27:12;;;;;;;7.80;4.47;;;;;;;21.63;59.03;99553.63;2225205;40;20390;-82
2021/06/18 04:28:44;;;;;;;9.27;4.50;;;;;;;21.62;58.94;99552.00;2225570;40;20038;-81
2021/06/18 04:30:18;;;;;;;11.38;8.50;;;;;;;21.68;58.76;99550.22;2225291;40;20025;-83
2021/06/18 04:31:50;;;;;;;12.75;7.75;;;;;;;21.74;58.38;99552.03;2226042;40;20033;-84
2021/06/18 04:33:21;;;;;;;7.22;5.10;;;;;;;21.77;58.45;99553.47;2225740;40;20044;-81
2021/06/18 04:34:53;;;;;;;8.38;5.47;;;;;;;21.75;58.51;99550.13;2225943;40;20036;-81
2021/06/18 04:36:26;;;;;;;9.63;5.57;;;;;;;21.73;58.56;99544.94;2225525;40;20040;-83
2021/06/18 04:37:59;;;;;;;6.75;4.80;;;;;;;21.77;58.54;99545.31;2220328;40;20037;-83
2021/06/18 04:39:31;;;;;;;9.48;5.72;;;;;;;21.86;58.50;99543.09;2218958;40;20495;-82
2021/06/18 04:41:02;;;;;;;9.02;5.35;;;;;;;21.95;58.69;99534.34;2221018;40;20068;-82
2021/06/18 04:42:34;;;;;;;12.73;7.63;;;;;;;21.93;58.47;99528.31;2229436;40;20036;-82
2021/06/18 04:44:06;;;;;;;10.32;5.68;;;;;;;21.88;58.56;99532.78;2235798;40;20032;-82
2021/06/18 04:45:38;;;;;;;6.50;4.78;;;;;;;21.93;58.45;99541.09;2229994;40;20040;-82
2021/06/18 04:47:10;;;;;;;9.30;4.95;;;;;;;21.95;57.97;99536.25;2216179;40;20241;-81
2021/06/18 04:48:41;;;;;;;7.97;5.53;;;;;;;21.94;57.61;99534.59;2229947;40;20102;-82
2021/06/18 04:50:13;;;;;;;8.63;6.18;;;;;;;21.92;57.50;99547.59;2230854;40;20032;-82
2021/06/18 04:51:46;;;;;;;6.60;4.30;;;;;;;21.91;57.56;99544.06;2231169;40;20056;-82
2021/06/18 04:53:17;;;;;;;8.82;4.68;;;;;;;22.00;57.32;99543.72;2231063;40;20695;-82
2021/06/18 04:54:55;;;;;;;6.85;4.20;;;;;;;22.09;57.20;99545.06;2230648;40;20040;-82
2021/06/18 04:56:27;;;;;;;7.13;4.50;;;;;;;22.17;56.92;99550.16;2232240;40;20496;-82
2021/06/18 04:57:59;;;;;;;5.80;4.00;;;;;;;22.25;56.48;99544.38;2230612;40;20033;-83
2021/06/18 04:59:35;;;;;;;7.03;4.05;;;;;;;22.33;56.56;99553.25;2230317;40;20127;-83
2021/06/18 05:01:07;;;;;;;7.10;3.90;;;;;;;22.39;56.23;99544.97;2230232;40;20040;-83
2021/06/18 05:02:39;;;;;;;6.47;3.95;;;;;;;22.46;55.97;99547.63;2230369;40;20082;-83
2021/06/18 05:04:10;;;;;;;6.95;4.32;;;;;;;22.51;55.87;99549.66;2230410;40;20064;-83
2021/06/18 05:05:42;;;;;;;12.60;4.88;;;;;;;22.52;56.07;99541.22;2226778;40;20044;-84
2021/06/18 05:07:15;;;;;;;9.05;4.65;;;;;;;22.53;56.31;99542.06;2230610;40;20032;-83
2021/06/18 05:08:46;;;;;;;10.35;4.75;;;;;;;22.59;56.14;99535.69;2230847;40;20036;-82
2021/06/18 05:10:18;;;;;;;8.38;4.45;;;;;;;22.66;56.17;99535.56;2231203;40;20033;-82
2021/06/18 05:11:50;;;;;;;10.50;4.93;;;;;;;22.73;56.57;99541.72;2230890;40;20542;-82
2021/06/18 05:13:23;;;;;;;6.90;4.28;;;;;;;22.76;56.65;99543.97;2229767;40;20036;-80
2021/06/18 05:14:53;;;;;;;6.53;4.75;;;;;;;22.80;56.69;99552.50;2230873;40;20082;-82
2021/06/18 05:16:26;;;;;;;10.18;5.03;;;;;;;22.85;56.36;99553.44;2231581;40;20048;-83
2021/06/18 05:17:58;;;;;;;8.68;5.28;;;;;;;22.90;56.45;99550.00;2225711;40;20041;-83
2021/06/18 05:19:28;;;;;;;11.23;5.68;;;;;;;22.87;56.32;99547.75;2225012;40;20048;-83
2021/06/18 05:21:00;;;;;;;7.38;5.32;;;;;;;22.80;56.53;99542.41;2231175;40;20029;-85
2021/06/18 05:22:33;;;;;;;7.57;5.32;;;;;;;22.79;56.64;99545.38;2230605;40;20033;-82
2021/06/18 05:24:06;;;;;;;7.32;5.28;;;;;;;22.80;56.75;99549.78;2231222;40;20386;-83
2021/06/18 05:25:38;;;;;;;11.52;5.40;;;;;;;22.80;56.84;99549.78;2231273;40;20039;-83
2021/06/18 05:27:10;;;;;;;7.93;5.32;;;;;;;22.83;56.67;99552.00;2232324;40;20057;-83
2021/06/18 05:28:41;;;;;;;7.90;5.13;;;;;;;22.85;56.88;99550.72;2230813;40;20047;-82
2021/06/18 05:30:16;;;;;;;9.90;5.60;;;;;;;22.89;56.82;99551.06;2224595;40;20377;-82
2021/06/18 05:31:48;;;;;;;9.82;5.32;;;;;;;22.86;56.91;99549.63;2226671;40;20033;-83
2021/06/18 05:33:20;;;;;;;6.85;5.18;;;;;;;22.94;57.02;99550.34;2224574;40;20033;-82
2021/06/18 05:34:52;;;;;;;7.68;5.00;;;;;;;23.01;56.80;99543.69;2224910;40;20037;-84
2021/06/18 05:36:24;;;;;;;7.90;5.22;;;;;;;23.06;56.25;99546.53;2229441;40;20041;-82
2021/06/18 05:37:57;;;;;;;8.30;5.47;;;;;;;23.12;55.82;99544.75;2230821;40;20038;-82
2021/06/18 05:39:29;;;;;;;12.07;5.43;;;;;;;23.18;55.58;99538.38;2230170;40;20452;-81
2021/06/18 05:41:01;;;;;;;10.82;4.20;;;;;;;23.20;55.28;99541.69;2227681;40;20057;-83
2021/06/18 05:42:31;;;;;;;19.33;6.00;;;;;;;23.29;55.14;99544.84;2227963;40;20029;-83
2021/06/18 05:44:04;;;;;;;11.25;5.20;;;;;;;23.33;55.00;99531.59;2230160;40;20056;-82
2021/06/18 05:45:36;;;;;;;9.50;5.30;;;;;;;23.33;54.96;99539.78;2228097;40;20448;-83
2021/06/18 05:47:08;;;;;;;8.35;5.38;;;;;;;23.38;54.91;99539.84;2230353;40;20040;-84
2021/06/18 05:48:40;;;;;;;11.07;5.55;;;;;;;23.46;54.54;99539.47;2224601;40;20301;-85
2021/06/18 05:50:12;;;;;;;7.80;5.32;;;;;;;23.47;54.57;99534.88;2224997;40;20289;-85
2021/06/18 05:51:43;;;;;;;9.77;5.28;;;;;;;23.51;54.77;99533.28;2227122;40;20430;-82
2021/06/18 05:53:17;;;;;;;11.15;5.57;;;;;;;23.61;54.33;99540.84;2231227;40;20036;-81
2021/06/18 05:54:47;;;;;;;9.05;5.47;;;;;;;23.70;53.98;99536.66;2226549;40;20025;-83
2021/06/18 05:56:19;;;;;;;12.77;5.60;;;;;;;23.75;53.88;99536.75;2219378;40;20037;-82
2021/06/18 05:57:51;;;;;;;9.30;5.10;;;;;;;23.82;53.85;99531.97;2222551;40;20545;-82
2021/06/18 05:59:23;;;;;;;7.78;5.00;;;;;;;23.91;53.75;99545.19;2224992;40;20030;-82
2021/06/18 06:00:55;;;;;;;9.73;5.22;;;;;;;23.98;53.81;99540.47;2224432;40;20017;-80
2021/06/18 06:02:26;;;;;;;6.78;4.80;;;;;;;24.08;53.48;99540.66;2224498;40;20037;-81
2021/06/18 06:03:58;;;;;;;9.20;5.20;;;;;;;24.19;53.54;99543.53;2224281;40;20104;-81
2021/06/18 06:05:30;;;;;;;10.25;5.78;;;;;;;24.29;52.94;99546.44;2224851;40;20032;-83
2021/06/18 06:07:01;;;;;;;6.00;4.80;;;;;;;24.34;52.77;99543.81;2225444;40;20048;-83
2021/06/18 06:08:35;;;;;;;11.13;5.47;;;;;;;24.41;52.50;99549.09;2225597;40;20057;-83
2021/06/18 06:10:08;;;;;;;8.30;5.68;;;;;;;24.44;52.56;99554.06;2224914;40;20025;-83
2021/06/18 06:11:40;;;;;;;9.70;5.32;;;;;;;24.45;52.47;99550.25;2228155;40;20029;-80
2021/06/18 06:13:12;;;;;;;6.47;5.00;;;;;;;24.46;52.48;99549.19;2224605;40;20040;-81
2021/06/18 06:14:44;;;;;;;7.65;5.15;;;;;;;24.53;52.54;99547.09;2225630;40;20095;-81
2021/06/18 06:16:15;;;;;;;8.18;5.03;;;;;;;24.61;52.13;99549.41;2224351;40;20036;-81
2021/06/18 06:17:47;;;;;;;9.48;5.15;;;;;;;24.68;51.95;99546.53;2225996;40;20059;-82
2021/06/18 06:19:18;;;;;;;8.63;5.47;;;;;;;24.69;51.97;99545.47;2225594;40;20040;-81
2021/06/18 06:20:50;;;;;;;7.05;5.20;;;;;;;24.76;51.53;99545.28;2223983;40;20032;-80
2021/06/18 06:22:22;;;;;;;7.85;4.75;;;;;;;24.81;51.58;99553.56;2223586;40;20037;-82
2021/06/18 06:23:55;;;;;;;7.00;4.88;;;;;;;24.87;51.59;99551.72;2224379;40;20033;-81
2021/06/18 06:25:27;;;;;;;6.68;4.88;;;;;;;24.94;51.53;99548.81;2224212;40;20037;-81
2021/06/18 06:26:59;;;;;;;8.80;5.40;;;;;;;24.99;51.62;99544.25;2223997;40;20057;-82
2021/06/18 06:28:31;;;;;;;10.63;5.50;;;;;;;25.03;51.24;99545.38;2224353;40;20040;-81
2021/06/18 06:30:02;;;;;;;9.57;5.30;;;;;;;24.98;51.33;99548.06;2224246;40;20037;-82
2021/06/18 06:31:34;;;;;;;7.35;4.90;;;;;;;25.00;51.25;99534.97;2224432;40;20464;-81
2021/06/18 06:33:06;;;;;;;8.98;5.53;;;;;;;25.04;51.31;99538.84;2224336;40;20053;-81
2021/06/18 06:34:37;;;;;;;10.77;5.03;;;;;;;25.08;50.90;99537.25;2218214;40;20045;-80
2021/06/18 06:36:09;;;;;;;15.80;5.70;;;;;;;25.13;50.82;99532.97;2218065;40;20042;-80
2021/06/18 06:37:42;;;;;;;11.32;4.85;;;;;;;25.17;50.82;99537.66;2220723;40;20037;-80
2021/06/18 06:39:15;;;;;;;7.03;4.95;;;;;;;25.26;50.82;99543.50;2222674;40;20370;-81
2021/06/18 06:40:47;;;;;;;8.10;5.07;;;;;;;25.30;50.38;99544.66;2226055;40;20052;-80
2021/06/18 06:42:18;;;;;;;8.43;4.57;;;;;;;25.33;50.65;99543.31;2223851;40;20049;-79
2021/06/18 06:43:50;;;;;;;7.43;5.30;;;;;;;25.41;50.38;99545.63;2223900;40;20146;-80
2021/06/18 06:45:22;;;;;;;7.05;4.90;;;;;;;25.48;50.11;99546.25;2223479;40;20377;-80
2021/06/18 06:46:54;;;;;;;8.82;4.70;;;;;;;25.59;49.68;99541.75;2224656;40;20083;-81
2021/06/18 06:48:26;;;;;;;6.90;4.63;;;;;;;25.70;49.02;99545.41;2225214;40;20042;-80
2021/06/18 06:49:58;;;;;;;7.78;4.55;;;;;;;25.81;48.75;99543.59;2225258;40;20381;-79
2021/06/18 06:51:30;;;;;;;6.60;4.57;;;;;;;25.92;48.50;99545.34;2225098;40;20036;-80
2021/06/18 06:53:02;;;;;;;7.22;5.00;;;;;;;26.00;47.92;99542.13;2224938;40;20048;-80
2021/06/18 06:54:35;;;;;;;6.70;4.32;;;;;;;26.09;48.02;99528.00;2218668;40;20042;-80
2021/06/18 06:56:06;;;;;;;8.50;4.68;;;;;;;26.18;47.95;99542.06;2222011;40;20320;-78
2021/06/18 06:57:38;;;;;;;6.95;4.45;;;;;;;26.23;47.76;99531.97;2224685;40;20048;-79
2021/06/18 06:59:10;;;;;;;7.32;4.65;;;;;;;26.29;47.56;99538.31;2224114;40;20035;-80
2021/06/18 07:00:42;;;;;;;7.28;4.80;;;;;;;26.29;47.35;99536.41;2226940;40;20033;-79
2021/06/18 07:02:14;;;;;;;8.52;4.50;;;;;;;26.31;47.25;99536.97;2229289;40;20029;-82
2021/06/18 07:03:45;;;;;;;7.68;4.72;;;;;;;26.44;46.97;99534.88;2224904;40;20045;-82
2021/06/18 07:05:16;;;;;;;8.10;5.00;;;;;;;26.55;46.77;99541.25;2224921;40;20044;-81
2021/06/18 07:06:48;;;;;;;11.27;5.05;;;;;;;26.68;46.67;99537.22;2224412;40;20033;-79
2021/06/18 07:08:22;;;;;;;6.82;4.97;;;;;;;26.64;46.69;99539.66;2224935;40;20041;-84
2021/06/18 07:09:55;;;;;;;8.80;4.63;;;;;;;26.75;46.62;99546.03;2224219;40;20040;-81
2021/06/18 07:11:26;;;;;;;6.13;4.50;;;;;;;26.80;46.79;99543.38;2224335;40;20037;-82
2021/06/18 07:12:58;;;;;;;8.73;4.97;;;;;;;26.92;46.37;99545.91;2226042;40;20029;-83
2021/06/18 07:14:30;;;;;;;6.72;5.10;;;;;;;27.00;45.82;99541.84;2223671;40;20053;-81
2021/06/18 07:16:01;;;;;;;6.22;4.88;;;;;;;27.05;45.93;99539.09;2225126;40;20044;-80
2021/06/18 07:17:33;;;;;;;10.23;6.07;;;;;;;27.12;45.80;99538.88;2223825;40;20059;-81